Time;durP1;ratioP1;P1;durP2;ratioP2;P2;SDS_P1;SDS_P2;PMS_P1;PMS_P2;Temp;Humidity;BMP_temperature;BMP_pressure;BME280_temperature;BME280_humidity;BME280_pressure;Samples;Min_cycle;Max_cycle;Signal;HPM_P1;HPM_P2
2023/05/17 00:00:22;;;;;;;8.50;2.30;;;9.90;99.90;;;;;;5098189;28;20507;-83
2023/05/17 00:02:48;;;;;;;6.23;2.57;;;9.90;1.00;;;;;;5099607;28;20489;-83
2023/05/17 00:05:15;;;;;;;2.47;1.90;;;10.00;1.00;;;;;;5101057;28;20474;-83
2023/05/17 00:07:42;;;;;;;7.13;2.17;;;9.60;1.00;;;;;;5115970;28;20427;-82
2023/05/17 00:10:10;;;;;;;5.23;3.20;;;9.80;99.90;;;;;;5119344;28;20440;-82
2023/05/17 00:12:38;;;;;;;2.10;1.97;;;9.80;1.00;;;;;;5118439;28;20432;-82
2023/05/17 00:15:06;;;;;;;3.73;1.73;;;9.70;99.90;;;;;;5112501;28;20468;-80
2023/05/17 00:17:33;;;;;;;7.67;2.23;;;9.70;99.90;;;;;;5100002;28;20444;-80
2023/05/17 00:19:59;;;;;;;4.20;2.03;;;9.70;99.90;;;;;;5099420;28;20475;-80
2023/05/17 00:22:26;;;;;;;5.00;2.13;;;9.60;99.90;;;;;;5103372;28;20452;-80
2023/05/17 00:24:53;;;;;;;5.80;1.97;;;9.40;99.90;;;;;;5113178;28;20505;-80
2023/05/17 00:27:20;;;;;;;5.57;2.70;;;9.40;99.90;;;;;;5113981;28;20436;-80
2023/05/17 00:29:48;;;;;;;4.67;2.33;;;9.50;1.00;;;;;;5106969;28;20471;-82
2023/05/17 00:32:15;;;;;;;6.13;2.67;;;9.50;99.90;;;;;;5099523;28;20448;-82
2023/05/17 00:34:42;;;;;;;6.60;3.13;;;9.40;99.90;;;;;;5098964;28;20464;-80
2023/05/17 00:37:08;;;;;;;8.40;3.00;;;9.40;99.90;;;;;;5098128;28;20515;-81
2023/05/17 00:39:35;;;;;;;3.40;3.00;;;9.40;99.90;;;;;;5095311;28;20603;-81
2023/05/17 00:42:03;;;;;;;6.50;2.50;;;9.30;99.90;;;;;;5094899;28;20423;-79
2023/05/17 00:44:30;;;;;;;6.03;3.40;;;9.30;99.90;;;;;;5101594;28;20987;-80
2023/05/17 00:46:58;;;;;;;4.17;2.50;;;9.30;99.90;;;;;;5109953;28;20504;-81
2023/05/17 00:49:25;;;;;;;4.10;2.73;;;9.40;99.90;;;;;;5109660;28;20463;-81
2023/05/17 00:51:53;;;;;;;5.03;3.30;;;9.20;99.90;;;;;;5106927;28;20448;-80
2023/05/17 00:54:21;;;;;;;4.83;3.10;;;9.20;99.90;;;;;;5102526;28;20461;-79
2023/05/17 00:56:48;;;;;;;11.50;3.60;;;9.10;99.90;;;;;;5098089;28;20427;-79
2023/05/17 00:59:16;;;;;;;6.03;2.60;;;9.10;1.00;;;;;;5097206;28;20479;-79
2023/05/17 01:01:43;;;;;;;5.37;3.17;;;9.20;1.00;;;;;;5098717;28;20444;-80
2023/05/17 01:04:11;;;;;;;7.30;2.37;;;9.10;1.00;;;;;;5099597;28;20473;-79
2023/05/17 01:06:38;;;;;;;5.67;3.47;;;9.20;1.00;;;;;;5100478;28;20531;-79
2023/05/17 01:09:07;;;;;;;12.83;3.60;;;9.20;1.00;;;;;;5100679;28;20856;-79
2023/05/17 01:11:42;;;;;;;5.40;2.70;;;9.10;1.00;;;;;;5100884;28;20491;-79
2023/05/17 01:14:23;;;;;;;6.73;3.10;;;9.10;1.00;;;;;;5099624;28;20468;-80
2023/05/17 01:16:57;;;;;;;6.93;4.57;;;10.70;1.00;;;;;;5104597;28;20511;-79
2023/05/17 01:19:49;;;;;;;3.70;3.07;;;9.10;1.00;;;;;;5111759;28;20488;-78
2023/05/17 01:22:27;;;;;;;5.30;2.73;;;9.10;1.00;;;;;;5109419;28;20455;-78
2023/05/17 01:25:07;;;;;;;6.20;3.23;;;8.90;1.00;;;;;;5103754;28;20563;-80
2023/05/17 01:27:37;;;;;;;7.30;4.30;;;8.90;1.00;;;;;;5100594;28;20874;-79
2023/05/17 01:30:06;;;;;;;10.50;3.73;;;9.00;1.00;;;;;;5100780;28;20508;-78
2023/05/17 01:32:34;;;;;;;9.13;3.17;;;9.10;1.00;;;;;;5100553;28;20445;-79
2023/05/17 01:35:00;;;;;;;5.90;3.40;;;9.00;1.00;;;;;;5099599;28;20429;-79
2023/05/17 01:37:27;;;;;;;7.27;2.70;;;9.00;1.00;;;;;;5100268;28;20422;-79
2023/05/17 01:39:54;;;;;;;17.33;3.80;;;9.00;1.00;;;;;;5100436;28;20898;-80
2023/05/17 01:42:24;;;;;;;9.87;3.90;;;8.90;1.00;;;;;;5100122;28;20444;-80
2023/05/17 01:45:03;;;;;;;6.30;3.20;;;8.90;1.00;;;;;;5100486;28;20550;-80
2023/05/17 01:47:40;;;;;;;6.10;3.77;;;8.90;1.00;;;;;;5100439;28;20436;-80
2023/05/17 01:50:10;;;;;;;10.27;3.33;;;8.80;1.00;;;;;;5099344;28;20891;-80
2023/05/17 01:52:40;;;;;;;16.03;4.10;;;8.80;99.90;;;;;;5099824;28;20440;-80
2023/05/17 01:55:15;;;;;;;6.97;4.83;;;8.80;1.00;;;;;;5102915;28;20438;-80
2023/05/17 01:57:44;;;;;;;5.63;3.30;;;8.80;1.00;;;;;;5104757;28;20433;-81
2023/05/17 02:00:15;;;;;;;9.20;3.40;;;8.80;1.00;;;;;;5101509;28;20480;-80
2023/05/17 02:02:42;;;;;;;13.13;4.70;;;8.90;82.40;;;;;;5101034;28;20943;-80
2023/05/17 02:05:09;;;;;;;10.83;4.30;;;8.70;1.00;;;;;;5101018;28;20451;-80
2023/05/17 02:07:35;;;;;;;8.30;3.80;;;8.80;1.00;;;;;;5108666;28;20540;-80
2023/05/17 02:10:03;;;;;;;13.70;4.03;;;8.70;1.00;;;;;;5115603;28;20443;-80
2023/05/17 02:12:30;;;;;;;9.90;3.47;;;8.70;1.00;;;;;;5115245;28;20889;-80
2023/05/17 02:14:57;;;;;;;7.30;3.40;;;8.70;1.00;;;;;;5114853;28;20576;-79
2023/05/17 02:17:25;;;;;;;7.90;3.40;;;8.80;1.00;;;;;;5112511;28;20527;-79
2023/05/17 02:19:52;;;;;;;8.17;3.43;;;8.70;1.00;;;;;;5106531;28;20843;-79
2023/05/17 02:22:18;;;;;;;6.40;3.67;;;8.80;1.00;;;;;;5105907;28;20448;-79
2023/05/17 02:24:47;;;;;;;11.13;3.77;;;8.80;1.00;;;;;;5111612;28;20535;-79
2023/05/17 02:27:14;;;;;;;5.37;3.93;;;8.60;99.90;;;;;;5100648;28;20427;-81
2023/05/17 02:29:41;;;;;;;7.23;3.80;;;8.70;1.00;;;;;;5100316;28;20425;-79
2023/05/17 02:32:08;;;;;;;12.90;4.37;;;8.50;99.90;;;;;;5100820;28;20501;-79
2023/05/17 02:34:36;;;;;;;8.80;3.90;;;8.80;1.00;;;;;;5100977;28;20478;-79
2023/05/17 02:37:03;;;;;;;6.03;3.47;;;8.80;1.00;;;;;;5111373;28;20448;-79
2023/05/17 02:39:30;;;;;;;10.50;4.10;;;8.80;1.00;;;;;;5112102;28;20496;-79
2023/05/17 02:41:56;;;;;;;7.63;4.60;;;8.80;94.20;;;;;;5110114;28;20475;-79
2023/05/17 02:44:23;;;;;;;8.10;4.13;;;8.90;49.90;;;;;;5108348;28;20472;-79
2023/05/17 02:46:50;;;;;;;8.00;4.23;;;8.90;99.90;;;;;;5110305;28;20963;-79
2023/05/17 02:49:17;;;;;;;10.23;4.20;;;9.00;99.90;;;;;;5109095;28;20500;-79
2023/05/17 02:51:45;;;;;;;11.40;3.63;;;9.00;15.90;;;;;;5100664;28;20540;-79
2023/05/17 02:54:12;;;;;;;5.73;3.73;;;9.00;1.00;;;;;;5113777;28;20481;-79
2023/05/17 02:56:38;;;;;;;4.33;2.87;;;9.10;73.90;;;;;;5111272;28;20464;-79
2023/05/17 02:59:05;;;;;;;11.27;4.57;;;9.10;1.00;;;;;;5098951;28;20454;-80
2023/05/17 03:01:32;;;;;;;9.23;3.23;;;9.10;30.00;;;;;;5099327;28;20522;-80
2023/05/17 03:03:59;;;;;;;10.17;4.77;;;9.10;1.00;;;;;;5099435;28;20564;-80
2023/05/17 03:06:26;;;;;;;9.37;3.73;;;9.20;99.90;;;;;;5099484;28;20447;-80
2023/05/17 03:08:54;;;;;;;8.20;3.90;;;9.20;1.00;;;;;;5099063;28;20462;-81
2023/05/17 03:11:21;;;;;;;10.43;4.37;;;9.30;1.00;;;;;;5098758;28;20452;-80
2023/05/17 03:13:50;;;;;;;8.77;3.43;;;9.30;1.00;;;;;;5099390;28;20475;-80
2023/05/17 03:16:17;;;;;;;13.90;4.70;;;9.30;1.00;;;;;;5104562;28;20474;-80
2023/05/17 03:18:44;;;;;;;9.33;4.10;;;9.20;1.00;;;;;;5119684;28;20552;-79
2023/05/17 03:21:10;;;;;;;6.97;3.50;;;9.20;1.00;;;;;;5115950;28;20534;-79
2023/05/17 03:23:37;;;;;;;7.17;3.90;;;9.30;1.00;;;;;;5151602;22;20489;-85
2023/05/17 03:26:06;;;;;;;11.40;4.27;;;9.30;1.00;;;;;;5112490;28;20451;-84
2023/05/17 03:28:34;;;;;;;12.97;4.60;;;;;;;;;;5102921;28;20828;-85
2023/05/17 03:31:01;;;;;;;9.73;3.87;;;9.30;99.90;;;;;;5112441;28;20463;-83
2023/05/17 03:33:28;;;;;;;9.87;4.00;;;9.50;1.00;;;;;;5101355;28;20469;-84
2023/05/17 03:35:54;;;;;;;9.60;4.10;;;9.50;1.00;;;;;;5104895;28;20520;-84
2023/05/17 03:38:22;;;;;;;10.60;4.45;;;9.50;1.00;;;;;;5103275;28;20440;-85
2023/05/17 03:40:48;;;;;;;10.73;4.00;;;9.50;1.00;;;;;;5112622;28;20475;-84
2023/05/17 03:43:17;;;;;;;10.07;4.47;;;9.10;99.90;;;;;;5120092;28;20417;-84
2023/05/17 03:45:43;;;;;;;9.67;4.97;;;9.50;1.00;;;;;;5115770;28;20496;-84
2023/05/17 03:48:10;;;;;;;10.80;3.97;;;9.50;1.00;;;;;;5104466;28;20943;-84
2023/05/17 03:50:39;;;;;;;13.10;5.37;;;9.60;23.10;;;;;;5105885;28;20446;-84
2023/05/17 03:53:07;;;;;;;10.37;5.30;;;9.60;77.00;;;;;;5107764;28;20495;-85
2023/05/17 03:55:33;;;;;;;9.73;4.43;;;9.50;93.90;;;;;;5100312;28;20433;-85
2023/05/17 03:58:00;;;;;;;5.70;4.60;;;9.50;1.00;;;;;;5099688;28;20615;-85
2023/05/17 04:00:29;;;;;;;10.20;3.90;;;9.80;99.90;;;;;;5101768;28;20523;-84
2023/05/17 04:02:55;;;;;;;7.90;4.10;;;9.60;99.90;;;;;;5100040;28;20476;-84
2023/05/17 04:05:22;;;;;;;8.67;4.13;;;9.60;1.00;;;;;;5098867;28;20830;-85
2023/05/17 04:07:49;;;;;;;10.47;4.47;;;9.50;1.00;;;;;;5099664;28;20451;-85
2023/05/17 04:10:21;;;;;;;12.83;5.37;;;;;;;;;;5099486;28;20444;-87
2023/05/17 04:12:49;;;;;;;9.50;4.70;;;;;;;;;;5101010;28;20888;-84
2023/05/17 04:15:15;;;;;;;13.17;4.30;;;9.30;3.00;;;;;;5101871;28;20442;-83
2023/05/17 04:17:44;;;;;;;10.80;4.60;;;9.30;52.20;;;;;;5111497;28;20495;-85
2023/05/17 04:20:12;;;;;;;14.43;5.93;;;9.30;2.50;;;;;;5098121;28;20516;-84
2023/05/17 04:22:39;;;;;;;11.20;3.70;;;9.30;99.90;;;;;;5098044;28;20449;-85
2023/05/17 04:25:07;;;;;;;12.77;6.40;;;9.50;99.90;;;;;;5097498;28;20475;-85
2023/05/17 04:27:33;;;;;;;8.27;5.13;;;9.20;99.90;;;;;;5097782;28;20449;-85
2023/05/17 04:30:01;;;;;;;10.90;4.70;;;9.50;99.90;;;;;;5097333;28;20454;-84
2023/05/17 04:32:28;;;;;;;11.87;5.13;;;9.50;16.90;;;;;;5097514;28;20531;-85
2023/05/17 04:34:56;;;;;;;10.87;4.73;;;9.40;1.00;;;;;;5097657;28;20442;-85
2023/05/17 04:37:23;;;;;;;11.63;5.30;;;9.50;99.90;;;;;;5097706;28;20444;-84
2023/05/17 04:39:51;;;;;;;8.57;5.13;;;9.50;55.30;;;;;;5097934;28;20578;-85
2023/05/17 04:42:18;;;;;;;14.20;4.70;;;9.60;1.00;;;;;;5097827;28;20455;-85
2023/05/17 04:44:45;;;;;;;11.03;4.80;;;9.60;62.70;;;;;;5097875;28;20536;-85
2023/05/17 04:47:12;;;;;;;6.90;4.93;;;9.60;5.50;;;;;;5098503;28;20472;-85
2023/05/17 04:49:40;;;;;;;13.47;5.10;;;9.80;99.90;;;;;;5099488;28;20411;-86
2023/05/17 04:52:08;;;;;;;8.00;5.30;;;9.60;21.00;;;;;;5099493;28;20449;-86
2023/05/17 04:54:35;;;;;;;9.23;4.00;;;9.60;32.20;;;;;;5098966;28;20548;-85
2023/05/17 04:57:02;;;;;;;13.83;4.97;;;9.60;40.80;;;;;;5099473;28;20460;-85
2023/05/17 04:59:29;;;;;;;7.33;5.10;;;9.60;99.90;;;;;;5101997;28;20483;-84
2023/05/17 05:01:56;;;;;;;11.87;4.53;;;9.70;85.30;;;;;;5104487;28;20444;-86
2023/05/17 05:04:24;;;;;;;15.50;5.10;;;9.60;14.30;;;;;;5101633;28;20476;-85
2023/05/17 05:06:51;;;;;;;10.93;4.57;;;9.80;99.90;;;;;;5099938;28;20456;-86
2023/05/17 05:09:19;;;;;;;8.97;5.70;;;10.00;1.00;;;;;;5103571;28;20444;-83
2023/05/17 05:11:46;;;;;;;10.17;4.87;;;9.60;25.90;;;;;;5106733;28;20472;-85
2023/05/17 05:14:13;;;;;;;9.90;4.53;;;9.60;1.00;;;;;;5100188;28;20547;-85
2023/05/17 05:16:40;;;;;;;9.37;4.10;;;9.70;1.00;;;;;;5099726;28;20593;-84
2023/05/17 05:19:07;;;;;;;8.50;4.50;;;9.80;1.00;;;;;;5099322;28;20479;-85
2023/05/17 05:21:34;;;;;;;16.53;4.60;;;9.90;1.00;;;;;;5099541;28;20448;-85
2023/05/17 05:24:03;;;;;;;9.57;4.30;;;10.00;1.00;;;;;;5098380;28;20499;-84
2023/05/17 05:26:31;;;;;;;16.80;4.17;;;9.90;1.00;;;;;;5105536;28;20455;-84
2023/05/17 05:28:59;;;;;;;15.40;5.60;;;;;;;;;;5118746;28;20432;-83
2023/05/17 05:31:25;;;;;;;11.67;3.90;;;10.00;1.00;;;;;;5118592;28;20419;-85
2023/05/17 05:33:52;;;;;;;9.60;3.97;;;10.00;1.00;;;;;;5103659;28;20488;-86
2023/05/17 05:36:19;;;;;;;9.63;4.17;;;9.80;1.00;;;;;;5097928;28;20443;-86
2023/05/17 05:38:46;;;;;;;13.53;4.47;;;9.90;18.90;;;;;;5108185;28;20425;-85
2023/05/17 05:41:14;;;;;;;11.10;4.40;;;;;;;;;;5111915;28;20492;-86
2023/05/17 05:43:42;;;;;;;12.43;5.40;;;10.00;1.00;;;;;;5105830;28;20531;-86
2023/05/17 05:46:09;;;;;;;8.07;4.33;;;10.10;1.00;;;;;;5111140;28;20452;-87
2023/05/17 05:48:38;;;;;;;15.33;6.00;;;10.20;1.00;;;;;;5113120;28;20456;-86
2023/05/17 05:51:05;;;;;;;9.23;4.40;;;10.20;1.00;;;;;;5107741;28;20451;-86
2023/05/17 05:53:32;;;;;;;12.00;4.77;;;10.00;1.00;;;;;;5113211;28;20460;-86
2023/05/17 05:55:59;;;;;;;13.17;5.83;;;10.30;1.00;;;;;;5107670;28;20528;-87
2023/05/17 05:58:26;;;;;;;8.67;5.13;;;10.20;1.00;;;;;;5105925;28;20534;-87
2023/05/17 06:00:54;;;;;;;13.00;4.70;;;9.90;1.00;;;;;;5106435;28;20472;-86
2023/05/17 06:03:21;;;;;;;10.30;4.47;;;10.10;1.00;;;;;;5104441;28;20536;-86
2023/05/17 06:05:48;;;;;;;7.60;4.20;;;10.90;1.00;;;;;;5112017;28;20509;-86
2023/05/17 06:08:15;;;;;;;10.43;4.50;;;9.70;1.00;;;;;;5116290;28;20444;-86
2023/05/17 06:10:42;;;;;;;7.43;3.33;;;;;;;;;;5117480;28;20435;-86
2023/05/17 06:13:11;;;;;;;12.40;3.60;;;9.80;1.00;;;;;;5119081;28;20521;-85
2023/05/17 06:15:38;;;;;;;9.57;3.50;;;10.00;99.90;;;;;;5112922;28;20445;-86
2023/05/17 06:18:06;;;;;;;18.10;3.73;;;10.00;99.90;;;;;;5108241;28;20506;-86
2023/05/17 06:20:33;;;;;;;13.90;4.10;;;9.60;99.90;;;;;;5108130;28;20515;-86
2023/05/17 06:23:00;;;;;;;11.90;3.77;;;10.00;1.00;;;;;;5110850;28;20472;-85
2023/05/17 06:25:27;;;;;;;9.77;3.37;;;9.80;99.90;;;;;;5113107;28;20444;-85
2023/05/17 06:27:54;;;;;;;11.93;4.50;;;9.70;1.00;;;;;;5120252;28;20448;-85
2023/05/17 06:30:21;;;;;;;11.87;3.20;;;9.90;99.90;;;;;;5118205;28;20422;-86
2023/05/17 06:32:48;;;;;;;13.80;3.27;;;10.40;1.00;;;;;;5117330;28;20445;-85
2023/05/17 06:35:16;;;;;;;11.03;3.73;;;10.20;99.90;;;;;;5109895;28;20532;-87
2023/05/17 06:37:43;;;;;;;8.20;3.17;;;10.10;99.90;;;;;;5111060;28;20477;-86
2023/05/17 06:40:10;;;;;;;8.00;2.93;;;10.00;1.00;;;;;;5103135;28;20551;-85
2023/05/17 06:42:37;;;;;;;11.10;3.53;;;10.10;99.90;;;;;;5102823;28;20535;-85
2023/05/17 06:45:05;;;;;;;10.90;3.67;;;10.20;99.90;;;;;;5104432;28;20468;-86
2023/05/17 06:47:31;;;;;;;8.90;3.00;;;10.30;99.90;;;;;;5108093;28;20454;-84
2023/05/17 06:49:58;;;;;;;7.30;3.00;;;10.40;99.90;;;;;;5105793;28;20510;-85
2023/05/17 06:52:26;;;;;;;7.33;2.43;;;10.30;99.90;;;;;;5101053;28;21017;-85
2023/05/17 06:54:53;;;;;;;8.97;2.83;;;10.10;99.90;;;;;;5101665;28;20534;-86
2023/05/17 06:57:20;;;;;;;9.00;2.70;;;9.90;99.90;;;;;;5101564;28;20449;-86
2023/05/17 06:59:51;;;;;;;12.67;2.50;;;9.90;99.90;;;;;;5113811;28;20506;-83
2023/05/17 07:02:18;;;;;;;5.20;2.50;;;10.10;99.90;;;;;;5120518;28;20408;-84
2023/05/17 07:04:44;;;;;;;8.63;3.20;;;10.60;1.00;;;;;;5107358;28;20495;-85
2023/05/17 07:07:11;;;;;;;7.30;3.10;;;10.40;1.00;;;;;;5101728;28;20515;-88
2023/05/17 07:09:40;;;;;;;3.30;1.90;;;10.30;99.90;;;;;;5102094;28;20495;-87
2023/05/17 07:12:07;;;;;;;9.33;2.50;;;10.40;99.90;;;;;;5101388;28;20531;-84
2023/05/17 07:14:34;;;;;;;6.77;3.10;;;10.50;1.00;;;;;;5104814;28;20523;-84
2023/05/17 07:17:01;;;;;;;10.93;4.40;;;10.50;99.90;;;;;;5107086;28;20423;-84
2023/05/17 07:19:28;;;;;;;7.10;3.00;;;10.60;99.90;;;;;;5098717;28;20418;-83
2023/05/17 07:21:55;;;;;;;13.17;2.80;;;10.70;99.90;;;;;;5109111;28;20571;-83
2023/05/17 07:24:21;;;;;;;7.87;3.30;;;10.60;99.90;;;;;;5097727;28;20505;-83
2023/05/17 07:26:50;;;;;;;11.13;3.93;;;11.30;1.00;;;;;;5098813;28;21013;-83
2023/05/17 07:29:16;;;;;;;7.67;3.03;;;11.00;99.90;;;;;;5100361;28;20512;-84
2023/05/17 07:31:43;;;;;;;12.70;3.63;;;11.20;99.90;;;;;;5098789;28;20519;-84
2023/05/17 07:34:10;;;;;;;6.50;2.53;;;;;;;;;;5100165;28;20857;-84
2023/05/17 07:36:37;;;;;;;10.00;3.43;;;11.90;1.00;;;;;;5110031;28;20459;-87
2023/05/17 07:39:05;;;;;;;6.03;2.53;;;11.50;99.90;;;;;;5106242;28;20464;-83
2023/05/17 07:41:32;;;;;;;6.40;3.17;;;11.40;99.90;;;;;;5102445;28;20476;-85
2023/05/17 07:44:01;;;;;;;10.03;2.23;;;10.90;1.00;;;;;;5099616;28;20498;-87
2023/05/17 07:46:27;;;;;;;8.80;3.30;;;11.00;99.90;;;;;;5101424;28;20419;-86
2023/05/17 07:48:54;;;;;;;20.70;2.93;;;10.80;99.90;;;;;;5100448;28;20448;-86
2023/05/17 07:51:21;;;;;;;8.27;2.80;;;11.10;1.00;;;;;;5101621;28;20531;-85
2023/05/17 07:53:48;;;;;;;10.53;3.43;;;10.80;99.90;;;;;;5111998;28;20547;-84
2023/05/17 07:56:15;;;;;;;6.93;3.17;;;11.00;99.90;;;;;;5115535;28;20872;-85
2023/05/17 07:58:41;;;;;;;4.13;3.27;;;11.10;99.90;;;;;;5105102;28;20436;-85
2023/05/17 08:01:10;;;;;;;7.17;2.80;;;11.10;99.90;;;;;;5101532;28;20482;-85
2023/05/17 08:03:37;;;;;;;9.07;2.90;;;11.30;99.90;;;;;;5101794;28;20475;-84
2023/05/17 08:06:04;;;;;;;5.70;3.20;;;11.30;99.90;;;;;;5099081;28;20476;-84
2023/05/17 08:08:31;;;;;;;10.40;3.70;;;11.10;99.90;;;;;;5101929;28;20452;-85
2023/05/17 08:10:58;;;;;;;8.70;2.37;;;11.10;99.90;;;;;;5099878;28;20519;-84
2023/05/17 08:13:25;;;;;;;4.30;2.47;;;11.10;99.90;;;;;;5103292;28;20544;-84
2023/05/17 08:15:51;;;;;;;3.83;2.37;;;11.20;99.90;;;;;;5100708;28;20451;-85
2023/05/17 08:18:20;;;;;;;4.07;2.00;;;11.20;99.90;;;;;;5100258;28;20454;-84
2023/05/17 08:20:48;;;;;;;9.37;3.70;;;11.30;99.90;;;;;;5098702;28;20508;-85
2023/05/17 08:23:15;;;;;;;8.13;2.63;;;11.30;1.00;;;;;;5099399;28;20468;-85
2023/05/17 08:25:42;;;;;;;9.70;2.60;;;11.50;99.90;;;;;;5099225;28;20862;-86
2023/05/17 08:28:09;;;;;;;12.30;2.50;;;11.70;99.90;;;;;;5098814;28;20530;-84
2023/05/17 08:30:35;;;;;;;5.50;2.50;;;11.30;99.90;;;;;;5098813;28;20437;-83
2023/05/17 08:33:02;;;;;;;4.03;2.17;;;11.50;99.90;;;;;;5099352;28;20445;-83
2023/05/17 08:35:31;;;;;;;8.23;2.30;;;11.70;99.90;;;;;;5101833;28;21007;-87
2023/05/17 08:37:58;;;;;;;4.77;2.00;;;11.80;99.90;;;;;;5104005;28;20451;-87
2023/05/17 08:40:25;;;;;;;7.73;5.30;;;11.90;99.90;;;;;;5101250;28;20487;-84
2023/05/17 08:42:52;;;;;;;7.20;3.20;;;12.00;99.90;;;;;;5101353;28;20448;-83
2023/05/17 08:45:20;;;;;;;8.43;3.33;;;11.90;99.90;;;;;;5108963;28;20525;-84
2023/05/17 08:47:47;;;;;;;12.37;2.80;;;11.80;99.90;;;;;;5108342;28;20441;-85
2023/05/17 08:50:16;;;;;;;8.20;2.70;;;11.90;99.90;;;;;;5105201;28;20474;-85
2023/05/17 08:52:45;;;;;;;9.30;3.50;;;11.90;99.90;;;;;;5107921;28;20440;-83
2023/05/17 08:55:15;;;;;;;3.67;2.30;;;12.00;99.90;;;;;;5103209;28;20489;-83
2023/05/17 08:57:42;;;;;;;3.97;2.60;;;12.00;99.90;;;;;;5108784;28;20435;-84
2023/05/17 09:00:13;;;;;;;8.50;3.00;;;12.00;99.90;;;;;;5100559;28;20445;-84
2023/05/17 09:02:40;;;;;;;7.07;2.60;;;12.00;99.90;;;;;;5100088;28;20930;-84
2023/05/17 09:05:09;;;;;;;10.03;3.93;;;12.00;99.90;;;;;;5099637;28;20464;-84
2023/05/17 09:07:36;;;;;;;10.77;3.30;;;12.00;99.90;;;;;;5102524;28;20544;-83
2023/05/17 09:10:05;;;;;;;10.00;2.53;;;12.20;1.00;;;;;;5101560;28;20444;-84
2023/05/17 09:12:33;;;;;;;6.83;3.07;;;12.10;99.90;;;;;;5099888;28;20445;-84
2023/05/17 09:15:13;;;;;;;9.87;2.97;;;12.30;99.90;;;;;;5099171;28;20518;-84
2023/05/17 09:17:41;;;;;;;7.47;2.83;;;12.10;99.90;;;;;;5099094;28;20428;-84
2023/05/17 09:20:08;;;;;;;7.90;2.80;;;11.60;99.90;;;;;;5099487;28;20509;-83
2023/05/17 09:22:35;;;;;;;7.83;2.20;;;11.70;99.90;;;;;;5100977;28;21009;-84
2023/05/17 09:25:04;;;;;;;10.60;4.43;;;11.80;99.90;;;;;;5103252;28;21012;-84
2023/05/17 09:27:32;;;;;;;3.83;2.20;;;11.60;1.00;;;;;;5108727;28;20424;-83
2023/05/17 09:29:58;;;;;;;6.30;2.23;;;11.90;99.90;;;;;;5122080;28;20432;-83
2023/05/17 09:32:27;;;;;;;8.50;3.37;;;11.90;99.90;;;;;;5122214;28;20436;-84
2023/05/17 09:34:56;;;;;;;12.03;4.77;;;12.20;99.90;;;;;;5119005;28;20460;-85
2023/05/17 09:37:24;;;;;;;7.77;2.67;;;12.30;99.90;;;;;;5104605;28;20448;-85
2023/05/17 09:39:51;;;;;;;15.40;3.00;;;12.50;99.90;;;;;;5103766;28;20436;-84
2023/05/17 09:42:25;;;;;;;8.73;3.27;;;12.40;99.90;;;;;;5105530;28;20511;-84
2023/05/17 09:44:54;;;;;;;7.63;2.57;;;12.40;99.90;;;;;;5108232;28;20898;-84
2023/05/17 09:47:25;;;;;;;7.17;2.90;;;12.60;99.90;;;;;;5116216;28;20440;-84
2023/05/17 09:49:52;;;;;;;5.37;2.60;;;12.50;99.90;;;;;;5120398;28;20452;-84
2023/05/17 09:52:20;;;;;;;5.70;2.60;;;12.60;99.90;;;;;;5104151;28;20444;-85
2023/05/17 09:54:54;;;;;;;8.87;3.37;;;12.70;99.90;;;;;;5104132;28;20890;-84
2023/05/17 09:57:23;;;;;;;3.80;2.07;;;12.70;99.90;;;;;;5105526;28;20999;-83
2023/05/17 09:59:51;;;;;;;7.53;2.80;;;12.80;99.90;;;;;;5106048;28;20447;-84
2023/05/17 10:02:22;;;;;;;5.20;2.07;;;12.80;99.90;;;;;;5104370;28;20538;-84
2023/05/17 10:04:50;;;;;;;5.80;2.30;;;12.80;99.90;;;;;;5108290;28;20468;-85
2023/05/17 10:07:20;;;;;;;8.60;2.50;;;12.90;99.90;;;;;;5105626;28;20834;-84
2023/05/17 10:09:47;;;;;;;3.53;2.43;;;12.80;99.90;;;;;;5102679;28;20448;-84
2023/05/17 10:12:18;;;;;;;6.43;2.03;;;13.00;99.90;;;;;;5104150;28;20447;-84
2023/05/17 10:14:46;;;;;;;5.43;2.33;;;13.10;99.90;;;;;;5110577;28;20474;-84
2023/05/17 10:17:17;;;;;;;5.03;1.93;;;13.20;99.90;;;;;;5110956;28;20483;-83
2023/05/17 10:19:45;;;;;;;5.23;2.63;;;13.10;99.90;;;;;;5107386;28;20424;-84
2023/05/17 10:22:12;;;;;;;4.10;2.10;;;13.00;99.90;;;;;;5113862;28;20464;-83
2023/05/17 10:24:40;;;;;;;4.70;2.23;;;13.00;99.90;;;;;;5117881;28;20466;-85
2023/05/17 10:27:07;;;;;;;4.50;2.13;;;12.90;99.90;;;;;;5118924;28;20447;-83
2023/05/17 10:29:34;;;;;;;10.37;2.17;;;12.80;99.90;;;;;;5116626;28;20475;-84
2023/05/17 10:32:06;;;;;;;9.60;1.97;;;12.70;99.90;;;;;;5104778;28;20539;-84
2023/05/17 10:34:35;;;;;;;6.13;2.40;;;12.70;99.90;;;;;;5101528;28;20505;-85
2023/05/17 10:37:03;;;;;;;10.03;3.53;;;12.70;99.90;;;;;;5101877;28;20909;-84
2023/05/17 10:39:33;;;;;;;25.20;5.10;;;12.70;99.90;;;;;;5101996;28;20951;-85
2023/05/17 10:42:01;;;;;;;7.40;2.00;;;13.10;99.90;;;;;;5102042;28;20491;-85
2023/05/17 10:44:31;;;;;;;4.23;1.80;;;13.10;99.90;;;;;;5104390;28;20491;-84
2023/05/17 10:46:59;;;;;;;4.70;1.63;;;13.20;99.90;;;;;;5104097;28;20523;-85
2023/05/17 10:49:30;;;;;;;7.27;2.67;;;13.10;99.90;;;;;;5105726;28;20415;-85
2023/05/17 10:51:58;;;;;;;6.03;2.30;;;13.20;99.90;;;;;;5102555;28;20428;-86
2023/05/17 10:54:35;;;;;;;4.10;2.00;;;13.40;99.90;;;;;;5103131;28;20472;-86
2023/05/17 10:57:05;;;;;;;7.23;2.73;;;13.50;99.90;;;;;;5102080;28;20432;-84
2023/05/17 10:59:34;;;;;;;9.40;2.57;;;13.50;99.90;;;;;;5102703;28;20535;-87
2023/05/17 11:02:03;;;;;;;8.40;1.67;;;13.50;99.90;;;;;;5103979;28;20823;-85
2023/05/17 11:04:36;;;;;;;4.27;2.00;;;13.60;99.90;;;;;;5102104;28;20470;-87
2023/05/17 11:07:28;;;;;;;8.70;2.07;;;13.60;99.90;;;;;;5103321;28;20463;-85
2023/05/17 11:09:56;;;;;;;6.30;2.17;;;13.80;99.90;;;;;;5106177;28;20436;-87
2023/05/17 11:12:32;;;;;;;6.90;2.07;;;13.90;99.90;;;;;;5105356;28;20481;-84
2023/05/17 11:14:59;;;;;;;5.87;1.83;;;13.90;99.90;;;;;;5112460;28;20440;-84
2023/05/17 11:17:28;;;;;;;4.13;2.63;;;13.90;1.00;;;;;;5103995;28;20453;-85
2023/05/17 11:20:10;;;;;;;4.47;1.90;;;13.90;99.90;;;;;;5101389;28;20444;-86
2023/05/17 11:22:39;;;;;;;6.00;1.97;;;14.00;99.90;;;;;;5111870;28;20460;-84
2023/05/17 11:25:08;;;;;;;11.07;2.83;;;14.40;99.90;;;;;;5099012;28;20469;-85
2023/05/17 11:27:43;;;;;;;6.00;2.03;;;14.10;99.90;;;;;;5098859;28;20578;-85
2023/05/17 11:30:23;;;;;;;8.03;1.80;;;14.10;99.90;;;;;;5099859;28;20859;-85
2023/05/17 11:32:51;;;;;;;8.90;2.67;;;14.20;99.90;;;;;;5101626;28;20516;-85
2023/05/17 11:35:23;;;;;;;10.30;2.70;;;14.40;99.90;;;;;;5100921;28;20550;-85
2023/05/17 11:37:52;;;;;;;3.10;1.97;;;14.50;99.90;;;;;;5101157;28;20437;-86
2023/05/17 11:40:26;;;;;;;12.77;2.93;;;14.20;99.90;;;;;;5101555;28;20901;-85
2023/05/17 11:43:11;;;;;;;6.63;1.90;;;14.30;99.90;;;;;;5101163;28;20461;-84
2023/05/17 11:45:44;;;;;;;12.37;2.83;;;14.30;99.90;;;;;;5100623;28;20403;-86
2023/05/17 11:48:12;;;;;;;6.57;2.20;;;14.10;99.90;;;;;;5101270;28;20493;-85
2023/05/17 11:50:40;;;;;;;9.80;2.23;;;13.90;99.90;;;;;;5101744;28;20467;-84
2023/05/17 11:53:08;;;;;;;6.30;2.27;;;13.70;1.00;;;;;;5101437;28;20441;-86
2023/05/17 11:55:38;;;;;;;10.10;1.80;;;14.00;99.90;;;;;;5101489;28;20466;-85
2023/05/17 11:58:07;;;;;;;4.67;2.33;;;13.90;99.90;;;;;;5102147;28;20433;-85
2023/05/17 12:00:34;;;;;;;5.87;2.70;;;14.00;99.90;;;;;;5100046;28;20436;-85
2023/05/17 12:03:18;;;;;;;15.33;2.23;;;13.50;99.90;;;;;;5102102;28;21006;-86
2023/05/17 12:05:48;;;;;;;6.87;2.00;;;13.90;99.90;;;;;;5100352;28;20458;-88
2023/05/17 12:08:19;;;;;;;3.47;1.87;;;14.30;99.90;;;;;;5101377;28;20473;-88
2023/05/17 12:10:48;;;;;;;5.43;2.10;;;14.20;99.90;;;;;;5101769;28;20456;-87
2023/05/17 12:13:15;;;;;;;8.70;3.37;;;14.50;1.00;;;;;;5099529;28;20454;-89
2023/05/17 12:15:47;;;;;;;7.47;2.30;;;14.00;99.90;;;;;;5098445;28;20481;-90
2023/05/17 12:18:16;;;;;;;4.40;2.20;;;13.60;99.90;;;;;;5099596;28;20490;-88
2023/05/17 12:21:00;;;;;;;5.70;1.77;;;14.00;99.90;;;;;;5098684;28;20811;-89
2023/05/17 12:23:29;;;;;;;6.10;3.40;;;13.80;99.90;;;;;;5097428;28;20527;-89
2023/05/17 12:26:07;;;;;;;12.47;2.80;;;13.80;99.90;;;;;;5099611;28;20441;-90
2023/05/17 12:28:36;;;;;;;6.17;2.97;;;14.10;99.90;;;;;;5106447;28;20428;-89
2023/05/17 12:31:05;;;;;;;7.60;3.27;;;14.20;99.90;;;;;;5106729;28;20448;-88
2023/05/17 12:33:35;;;;;;;6.07;2.20;;;14.30;99.90;;;;;;5100919;28;20563;-88
2023/05/17 12:36:04;;;;;;;5.00;2.50;;;14.30;99.90;;;;;;5098757;28;20477;-87
2023/05/17 12:38:33;;;;;;;8.97;2.63;;;14.30;99.90;;;;;;5098203;28;20448;-86
2023/05/17 12:41:02;;;;;;;10.57;2.93;;;14.40;99.90;;;;;;5101538;28;20512;-87
2023/05/17 12:43:30;;;;;;;8.70;3.60;;;15.20;99.90;;;;;;5100752;28;20491;-87
2023/05/17 12:46:03;;;;;;;5.33;2.10;;;14.70;99.90;;;;;;5099388;28;20452;-88
2023/05/17 12:48:29;;;;;;;4.53;2.43;;;14.40;99.90;;;;;;5102427;28;20404;-87
2023/05/17 12:50:56;;;;;;;5.83;2.30;;;14.40;99.90;;;;;;5103183;28;20472;-88
2023/05/17 12:53:34;;;;;;;3.53;1.80;;;14.50;99.90;;;;;;5107091;28;20523;-87
2023/05/17 12:56:01;;;;;;;3.97;2.30;;;14.90;1.00;;;;;;5105268;28;20436;-88
2023/05/17 12:58:28;;;;;;;3.70;1.80;;;;;;;;;;5104257;28;20448;-88
2023/05/17 13:00:59;;;;;;;12.20;2.40;;;;;;;;;;5103314;28;20486;-86